sensor_id;sensor_type;location;lat;lon;timestamp;P1;durP1;ratioP1;P2;durP2;ratioP2
48987;SDS011;34799;51.440;-2.534;2023-04-15T00:02:16;1.58;;;0.63;;
48987;SDS011;34799;51.440;-2.534;2023-04-15T00:04:45;1.40;;;0.63;;
48987;SDS011;34799;51.440;-2.534;2023-04-15T00:07:16;1.73;;;0.70;;
48987;SDS011;34799;51.440;-2.534;2023-04-15T00:09:46;2.28;;;0.60;;
48987;SDS011;34799;51.440;-2.534;2023-04-15T00:12:17;1.90;;;1.20;;
48987;SDS011;34799;51.440;-2.534;2023-04-15T00:14:44;1.67;;;0.80;;
48987;SDS011;34799;51.440;-2.534;2023-04-15T00:17:14;2.65;;;0.82;;
48987;SDS011;34799;51.440;-2.534;2023-04-15T00:19:44;1.40;;;1.00;;
48987;SDS011;34799;51.440;-2.534;2023-04-15T00:22:18;2.63;;;1.58;;
48987;SDS011;34799;51.440;-2.534;2023-04-15T00:24:45;2.88;;;1.60;;
48987;SDS011;34799;51.440;-2.534;2023-04-15T00:27:14;4.25;;;1.50;;
48987;SDS011;34799;51.440;-2.534;2023-04-15T00:29:44;1.48;;;0.90;;
48987;SDS011;34799;51.440;-2.534;2023-04-15T00:32:13;3.03;;;2.05;;
48987;SDS011;34799;51.440;-2.534;2023-04-15T00:34:43;2.35;;;1.00;;
48987;SDS011;34799;51.440;-2.534;2023-04-15T00:37:12;2.92;;;1.10;;
48987;SDS011;34799;51.440;-2.534;2023-04-15T00:39:39;3.22;;;1.17;;
48987;SDS011;34799;51.440;-2.534;2023-04-15T00:42:06;2.92;;;0.93;;
48987;SDS011;34799;51.440;-2.534;2023-04-15T00:44:37;3.63;;;1.30;;
48987;SDS011;34799;51.440;-2.534;2023-04-15T00:47:06;2.95;;;1.10;;
48987;SDS011;34799;51.440;-2.534;2023-04-15T00:49:39;2.88;;;1.10;;
48987;SDS011;34799;51.440;-2.534;2023-04-15T00:52:09;2.63;;;0.98;;
48987;SDS011;34799;51.440;-2.534;2023-04-15T00:54:36;4.13;;;1.52;;
48987;SDS011;34799;51.440;-2.534;2023-04-15T00:57:06;4.60;;;0.80;;
48987;SDS011;34799;51.440;-2.534;2023-04-15T00:59:35;2.20;;;0.93;;
48987;SDS011;34799;51.440;-2.534;2023-04-15T01:02:02;3.20;;;0.75;;
48987;SDS011;34799;51.440;-2.534;2023-04-15T01:04:30;2.00;;;0.90;;
48987;SDS011;34799;51.440;-2.534;2023-04-15T01:06:59;1.77;;;0.65;;
48987;SDS011;34799;51.440;-2.534;2023-04-15T01:09:33;2.03;;;0.88;;
48987;SDS011;34799;51.440;-2.534;2023-04-15T01:12:04;4.50;;;1.10;;
48987;SDS011;34799;51.440;-2.534;2023-04-15T01:14:32;3.22;;;0.80;;
48987;SDS011;34799;51.440;-2.534;2023-04-15T01:17:00;1.92;;;0.73;;
48987;SDS011;34799;51.440;-2.534;2023-04-15T01:19:30;2.75;;;1.02;;
48987;SDS011;34799;51.440;-2.534;2023-04-15T01:22:01;0.93;;;0.52;;
48987;SDS011;34799;51.440;-2.534;2023-04-15T01:24:29;2.95;;;1.02;;
48987;SDS011;34799;51.440;-2.534;2023-04-15T01:26:58;2.25;;;0.85;;
48987;SDS011;34799;51.440;-2.534;2023-04-15T01:29:25;2.92;;;0.68;;
48987;SDS011;34799;51.440;-2.534;2023-04-15T01:31:53;3.25;;;1.13;;
48987;SDS011;34799;51.440;-2.534;2023-04-15T01:34:43;2.78;;;0.60;;
48987;SDS011;34799;51.440;-2.534;2023-04-15T01:37:31;2.03;;;0.60;;
48987;SDS011;34799;51.440;-2.534;2023-04-15T01:40:00;2.13;;;0.50;;
48987;SDS011;34799;51.440;-2.534;2023-04-15T01:42:33;1.88;;;0.50;;
48987;SDS011;34799;51.440;-2.534;2023-04-15T01:45:03;2.45;;;0.47;;
48987;SDS011;34799;51.440;-2.534;2023-04-15T01:47:33;2.67;;;0.63;;
48987;SDS011;34799;51.440;-2.534;2023-04-15T01:50:05;3.17;;;0.40;;
48987;SDS011;34799;51.440;-2.534;2023-04-15T01:52:34;3.20;;;0.68;;
48987;SDS011;34799;51.440;-2.534;2023-04-15T01:55:05;2.63;;;0.63;;
48987;SDS011;34799;51.440;-2.534;2023-04-15T01:57:35;2.33;;;0.43;;
48987;SDS011;34799;51.440;-2.534;2023-04-15T02:00:07;1.75;;;0.50;;
48987;SDS011;34799;51.440;-2.534;2023-04-15T02:02:42;1.08;;;0.40;;
48987;SDS011;34799;51.440;-2.534;2023-04-15T02:05:15;1.27;;;0.45;;
48987;SDS011;34799;51.440;-2.534;2023-04-15T02:07:47;1.23;;;0.63;;
48987;SDS011;34799;51.440;-2.534;2023-04-15T02:10:18;6.38;;;0.95;;
48987;SDS011;34799;51.440;-2.534;2023-04-15T02:12:46;2.13;;;0.80;;
48987;SDS011;34799;51.440;-2.534;2023-04-15T02:15:19;1.73;;;0.50;;
48987;SDS011;34799;51.440;-2.534;2023-04-15T02:17:50;1.80;;;0.93;;
48987;SDS011;34799;51.440;-2.534;2023-04-15T02:23:00;1.52;;;0.50;;
48987;SDS011;34799;51.440;-2.534;2023-04-15T02:25:31;3.30;;;0.50;;
48987;SDS011;34799;51.440;-2.534;2023-04-15T02:27:59;3.13;;;0.50;;
48987;SDS011;34799;51.440;-2.534;2023-04-15T02:30:30;3.00;;;0.55;;
48987;SDS011;34799;51.440;-2.534;2023-04-15T02:33:02;2.75;;;0.45;;
48987;SDS011;34799;51.440;-2.534;2023-04-15T02:35:30;1.85;;;0.40;;
48987;SDS011;34799;51.440;-2.534;2023-04-15T02:37:59;1.83;;;0.40;;
48987;SDS011;34799;51.440;-2.534;2023-04-15T02:40:29;2.83;;;0.50;;
48987;SDS011;34799;51.440;-2.534;2023-04-15T02:43:01;2.38;;;0.60;;
48987;SDS011;34799;51.440;-2.534;2023-04-15T02:45:32;1.23;;;0.30;;
48987;SDS011;34799;51.440;-2.534;2023-04-15T02:48:02;1.35;;;0.40;;
48987;SDS011;34799;51.440;-2.534;2023-04-15T02:50:33;3.45;;;0.38;;
48987;SDS011;34799;51.440;-2.534;2023-04-15T02:53:01;3.83;;;0.57;;
48987;SDS011;34799;51.440;-2.534;2023-04-15T02:55:31;3.17;;;0.50;;
48987;SDS011;34799;51.440;-2.534;2023-04-15T02:58:02;0.70;;;0.30;;
48987;SDS011;34799;51.440;-2.534;2023-04-15T03:00:30;1.17;;;0.40;;
48987;SDS011;34799;51.440;-2.534;2023-04-15T03:03:02;1.77;;;0.90;;
48987;SDS011;34799;51.440;-2.534;2023-04-15T03:05:43;4.13;;;1.17;;
48987;SDS011;34799;51.440;-2.534;2023-04-15T03:08:16;2.40;;;0.60;;
48987;SDS011;34799;51.440;-2.534;2023-04-15T03:10:45;2.40;;;0.50;;
48987;SDS011;34799;51.440;-2.534;2023-04-15T03:13:19;1.70;;;0.88;;
48987;SDS011;34799;51.440;-2.534;2023-04-15T03:15:48;4.35;;;1.00;;
48987;SDS011;34799;51.440;-2.534;2023-04-15T03:18:23;3.53;;;0.60;;
48987;SDS011;34799;51.440;-2.534;2023-04-15T03:20:53;1.92;;;0.63;;
48987;SDS011;34799;51.440;-2.534;2023-04-15T03:23:22;2.17;;;0.77;;
48987;SDS011;34799;51.440;-2.534;2023-04-15T03:25:56;1.10;;;0.47;;
48987;SDS011;34799;51.440;-2.534;2023-04-15T03:28:27;3.05;;;0.40;;
48987;SDS011;34799;51.440;-2.534;2023-04-15T03:31:02;1.33;;;0.40;;
48987;SDS011;34799;51.440;-2.534;2023-04-15T03:33:31;1.92;;;0.45;;
48987;SDS011;34799;51.440;-2.534;2023-04-15T03:36:07;1.92;;;0.60;;
48987;SDS011;34799;51.440;-2.534;2023-04-15T03:38:35;1.17;;;0.52;;
48987;SDS011;34799;51.440;-2.534;2023-04-15T03:41:07;4.60;;;0.75;;
48987;SDS011;34799;51.440;-2.534;2023-04-15T03:43:38;1.40;;;0.57;;
48987;SDS011;34799;51.440;-2.534;2023-04-15T03:46:07;4.80;;;1.02;;
48987;SDS011;34799;51.440;-2.534;2023-04-15T03:48:36;3.42;;;0.70;;
48987;SDS011;34799;51.440;-2.534;2023-04-15T03:51:04;2.83;;;0.70;;
48987;SDS011;34799;51.440;-2.534;2023-04-15T03:53:38;1.98;;;0.55;;
48987;SDS011;34799;51.440;-2.534;2023-04-15T03:56:06;5.40;;;0.73;;
48987;SDS011;34799;51.440;-2.534;2023-04-15T03:58:35;3.97;;;0.70;;
48987;SDS011;34799;51.440;-2.534;2023-04-15T04:01:13;2.08;;;0.50;;
48987;SDS011;34799;51.440;-2.534;2023-04-15T04:03:41;2.70;;;0.90;;
48987;SDS011;34799;51.440;-2.534;2023-04-15T04:06:12;2.35;;;1.00;;
48987;SDS011;34799;51.440;-2.534;2023-04-15T04:08:44;5.57;;;0.95;;
48987;SDS011;34799;51.440;-2.534;2023-04-15T04:11:12;2.15;;;0.85;;
48987;SDS011;34799;51.440;-2.534;2023-04-15T04:13:41;2.05;;;0.60;;
48987;SDS011;34799;51.440;-2.534;2023-04-15T04:16:10;1.55;;;0.80;;
48987;SDS011;34799;51.440;-2.534;2023-04-15T04:18:38;2.67;;;0.90;;
48987;SDS011;34799;51.440;-2.534;2023-04-15T04:21:06;1.10;;;0.63;;
48987;SDS011;34799;51.440;-2.534;2023-04-15T04:23:35;3.63;;;1.00;;
48987;SDS011;34799;51.440;-2.534;2023-04-15T04:26:04;2.53;;;0.80;;
48987;SDS011;34799;51.440;-2.534;2023-04-15T04:28:32;3.63;;;1.25;;
48987;SDS011;34799;51.440;-2.534;2023-04-15T04:31:06;5.15;;;1.10;;
48987;SDS011;34799;51.440;-2.534;2023-04-15T04:33:34;3.72;;;1.30;;
48987;SDS011;34799;51.440;-2.534;2023-04-15T04:36:06;4.78;;;1.17;;
48987;SDS011;34799;51.440;-2.534;2023-04-15T04:38:35;2.20;;;0.98;;
48987;SDS011;34799;51.440;-2.534;2023-04-15T04:41:04;2.88;;;1.27;;
48987;SDS011;34799;51.440;-2.534;2023-04-15T04:43:36;2.30;;;1.08;;
48987;SDS011;34799;51.440;-2.534;2023-04-15T04:46:05;2.90;;;1.10;;
48987;SDS011;34799;51.440;-2.534;2023-04-15T04:48:38;2.00;;;1.20;;
48987;SDS011;34799;51.440;-2.534;2023-04-15T04:51:07;5.07;;;1.02;;
48987;SDS011;34799;51.440;-2.534;2023-04-15T04:53:38;2.03;;;1.27;;
48987;SDS011;34799;51.440;-2.534;2023-04-15T04:56:07;4.57;;;1.55;;
48987;SDS011;34799;51.440;-2.534;2023-04-15T04:58:38;3.08;;;1.58;;
48987;SDS011;34799;51.440;-2.534;2023-04-15T05:01:06;2.65;;;1.60;;
48987;SDS011;34799;51.440;-2.534;2023-04-15T05:03:44;2.35;;;1.17;;
48987;SDS011;34799;51.440;-2.534;2023-04-15T05:06:13;5.78;;;2.17;;
48987;SDS011;34799;51.440;-2.534;2023-04-15T05:08:43;4.47;;;1.10;;
48987;SDS011;34799;51.440;-2.534;2023-04-15T05:11:13;3.25;;;1.20;;
48987;SDS011;34799;51.440;-2.534;2023-04-15T05:13:44;2.80;;;1.33;;
48987;SDS011;34799;51.440;-2.534;2023-04-15T05:16:16;3.03;;;1.40;;
48987;SDS011;34799;51.440;-2.534;2023-04-15T05:18:48;3.78;;;0.90;;
48987;SDS011;34799;51.440;-2.534;2023-04-15T05:21:17;3.30;;;0.90;;
48987;SDS011;34799;51.440;-2.534;2023-04-15T05:23:46;2.95;;;1.30;;
48987;SDS011;34799;51.440;-2.534;2023-04-15T05:26:15;2.83;;;0.77;;
48987;SDS011;34799;51.440;-2.534;2023-04-15T05:28:47;1.60;;;0.60;;
48987;SDS011;34799;51.440;-2.534;2023-04-15T05:31:17;1.40;;;0.80;;
48987;SDS011;34799;51.440;-2.534;2023-04-15T05:33:45;4.10;;;1.27;;
48987;SDS011;34799;51.440;-2.534;2023-04-15T05:36:15;3.60;;;1.20;;
48987;SDS011;34799;51.440;-2.534;2023-04-15T05:38:44;4.07;;;1.00;;
48987;SDS011;34799;51.440;-2.534;2023-04-15T05:41:13;3.90;;;1.23;;
48987;SDS011;34799;51.440;-2.534;2023-04-15T05:43:47;5.60;;;1.02;;
48987;SDS011;34799;51.440;-2.534;2023-04-15T05:46:18;3.83;;;0.85;;
48987;SDS011;34799;51.440;-2.534;2023-04-15T05:48:50;2.00;;;0.75;;
48987;SDS011;34799;51.440;-2.534;2023-04-15T05:51:18;2.05;;;0.60;;
48987;SDS011;34799;51.440;-2.534;2023-04-15T05:53:48;2.42;;;1.20;;
48987;SDS011;34799;51.440;-2.534;2023-04-15T05:56:17;1.98;;;0.80;;
48987;SDS011;34799;51.440;-2.534;2023-04-15T05:58:46;2.50;;;0.75;;
48987;SDS011;34799;51.440;-2.534;2023-04-15T06:01:19;3.80;;;0.75;;
48987;SDS011;34799;51.440;-2.534;2023-04-15T06:03:49;3.78;;;0.90;;
48987;SDS011;34799;51.440;-2.534;2023-04-15T06:06:18;2.50;;;0.90;;
48987;SDS011;34799;51.440;-2.534;2023-04-15T06:08:49;4.18;;;1.17;;
48987;SDS011;34799;51.440;-2.534;2023-04-15T06:11:25;4.88;;;1.10;;
48987;SDS011;34799;51.440;-2.534;2023-04-15T06:13:55;2.25;;;0.80;;
48987;SDS011;34799;51.440;-2.534;2023-04-15T06:16:23;2.55;;;0.73;;
48987;SDS011;34799;51.440;-2.534;2023-04-15T06:18:59;1.95;;;0.68;;
48987;SDS011;34799;51.440;-2.534;2023-04-15T06:21:33;3.38;;;0.70;;
48987;SDS011;34799;51.440;-2.534;2023-04-15T06:24:04;3.67;;;0.73;;
48987;SDS011;34799;51.440;-2.534;2023-04-15T06:26:33;4.97;;;0.90;;
48987;SDS011;34799;51.440;-2.534;2023-04-15T06:29:07;6.15;;;1.35;;
48987;SDS011;34799;51.440;-2.534;2023-04-15T06:31:35;4.13;;;0.80;;
48987;SDS011;34799;51.440;-2.534;2023-04-15T06:34:06;3.28;;;2.35;;
48987;SDS011;34799;51.440;-2.534;2023-04-15T06:36:37;3.60;;;2.53;;
48987;SDS011;34799;51.440;-2.534;2023-04-15T06:39:08;3.30;;;1.23;;
48987;SDS011;34799;51.440;-2.534;2023-04-15T06:41:37;2.78;;;1.23;;
48987;SDS011;34799;51.440;-2.534;2023-04-15T06:44:05;3.22;;;1.35;;
48987;SDS011;34799;51.440;-2.534;2023-04-15T06:46:34;4.43;;;1.58;;
48987;SDS011;34799;51.440;-2.534;2023-04-15T06:49:05;4.68;;;1.58;;
48987;SDS011;34799;51.440;-2.534;2023-04-15T06:51:34;10.85;;;2.55;;
48987;SDS011;34799;51.440;-2.534;2023-04-15T06:54:03;5.43;;;2.33;;
48987;SDS011;34799;51.440;-2.534;2023-04-15T06:56:39;6.43;;;2.80;;
48987;SDS011;34799;51.440;-2.534;2023-04-15T06:59:13;4.22;;;1.77;;
48987;SDS011;34799;51.440;-2.534;2023-04-15T07:01:41;5.35;;;2.33;;
48987;SDS011;34799;51.440;-2.534;2023-04-15T07:04:09;7.60;;;2.67;;
48987;SDS011;34799;51.440;-2.534;2023-04-15T07:06:42;7.85;;;2.20;;
48987;SDS011;34799;51.440;-2.534;2023-04-15T07:09:14;5.20;;;1.80;;
48987;SDS011;34799;51.440;-2.534;2023-04-15T07:11:45;6.10;;;1.40;;
48987;SDS011;34799;51.440;-2.534;2023-04-15T07:14:16;3.33;;;1.40;;
48987;SDS011;34799;51.440;-2.534;2023-04-15T07:16:45;3.35;;;1.15;;
48987;SDS011;34799;51.440;-2.534;2023-04-15T07:19:13;3.15;;;1.52;;
48987;SDS011;34799;51.440;-2.534;2023-04-15T07:21:45;8.07;;;1.98;;
48987;SDS011;34799;51.440;-2.534;2023-04-15T07:24:16;3.97;;;1.80;;
48987;SDS011;34799;51.440;-2.534;2023-04-15T07:26:46;4.57;;;1.92;;
48987;SDS011;34799;51.440;-2.534;2023-04-15T07:29:15;4.15;;;1.60;;
48987;SDS011;34799;51.440;-2.534;2023-04-15T07:31:43;3.95;;;1.55;;
48987;SDS011;34799;51.440;-2.534;2023-04-15T07:34:13;8.13;;;1.35;;
48987;SDS011;34799;51.440;-2.534;2023-04-15T07:36:45;4.30;;;1.60;;
48987;SDS011;34799;51.440;-2.534;2023-04-15T07:39:17;2.88;;;1.40;;
48987;SDS011;34799;51.440;-2.534;2023-04-15T07:41:45;3.58;;;1.40;;
48987;SDS011;34799;51.440;-2.534;2023-04-15T07:44:14;4.57;;;1.30;;
48987;SDS011;34799;51.440;-2.534;2023-04-15T07:46:46;3.80;;;1.33;;
48987;SDS011;34799;51.440;-2.534;2023-04-15T07:49:17;5.78;;;1.40;;
48987;SDS011;34799;51.440;-2.534;2023-04-15T07:51:54;4.30;;;1.55;;
48987;SDS011;34799;51.440;-2.534;2023-04-15T07:54:26;5.63;;;1.70;;
48987;SDS011;34799;51.440;-2.534;2023-04-15T07:57:00;4.00;;;1.10;;
48987;SDS011;34799;51.440;-2.534;2023-04-15T07:59:32;3.35;;;1.20;;
48987;SDS011;34799;51.440;-2.534;2023-04-15T08:02:01;5.15;;;1.15;;
48987;SDS011;34799;51.440;-2.534;2023-04-15T08:04:30;5.13;;;1.10;;
48987;SDS011;34799;51.440;-2.534;2023-04-15T08:06:59;3.70;;;0.80;;
48987;SDS011;34799;51.440;-2.534;2023-04-15T08:09:41;3.40;;;0.90;;
48987;SDS011;34799;51.440;-2.534;2023-04-15T08:12:14;4.88;;;1.33;;
48987;SDS011;34799;51.440;-2.534;2023-04-15T08:14:42;3.28;;;1.05;;
48987;SDS011;34799;51.440;-2.534;2023-04-15T08:17:13;2.30;;;1.05;;
48987;SDS011;34799;51.440;-2.534;2023-04-15T08:19:45;4.80;;;1.42;;
48987;SDS011;34799;51.440;-2.534;2023-04-15T08:22:20;5.25;;;1.55;;
48987;SDS011;34799;51.440;-2.534;2023-04-15T08:24:54;4.93;;;1.15;;
48987;SDS011;34799;51.440;-2.534;2023-04-15T08:27:29;6.18;;;1.40;;
48987;SDS011;34799;51.440;-2.534;2023-04-15T08:29:57;5.65;;;1.70;;
48987;SDS011;34799;51.440;-2.534;2023-04-15T08:32:29;4.72;;;1.23;;
48987;SDS011;34799;51.440;-2.534;2023-04-15T08:34:57;3.80;;;1.48;;
48987;SDS011;34799;51.440;-2.534;2023-04-15T08:37:29;5.13;;;1.70;;
48987;SDS011;34799;51.440;-2.534;2023-04-15T08:39:57;5.20;;;1.20;;
48987;SDS011;34799;51.440;-2.534;2023-04-15T08:42:34;3.22;;;1.13;;
48987;SDS011;34799;51.440;-2.534;2023-04-15T08:45:14;5.65;;;1.60;;
48987;SDS011;34799;51.440;-2.534;2023-04-15T08:47:45;3.92;;;1.25;;
48987;SDS011;34799;51.440;-2.534;2023-04-15T08:50:18;5.97;;;1.25;;
48987;SDS011;34799;51.440;-2.534;2023-04-15T08:52:47;4.05;;;1.10;;
48987;SDS011;34799;51.440;-2.534;2023-04-15T08:55:17;6.97;;;1.30;;
48987;SDS011;34799;51.440;-2.534;2023-04-15T08:57:49;7.20;;;1.13;;
48987;SDS011;34799;51.440;-2.534;2023-04-15T09:00:20;5.68;;;1.00;;
48987;SDS011;34799;51.440;-2.534;2023-04-15T09:02:52;6.57;;;1.00;;
48987;SDS011;34799;51.440;-2.534;2023-04-15T09:05:25;3.80;;;1.05;;
48987;SDS011;34799;51.440;-2.534;2023-04-15T09:08:00;3.88;;;0.90;;
48987;SDS011;34799;51.440;-2.534;2023-04-15T09:10:32;5.22;;;0.80;;
48987;SDS011;34799;51.440;-2.534;2023-04-15T09:13:00;4.28;;;0.88;;
48987;SDS011;34799;51.440;-2.534;2023-04-15T09:15:31;3.20;;;1.35;;
48987;SDS011;34799;51.440;-2.534;2023-04-15T09:18:00;6.20;;;1.08;;
48987;SDS011;34799;51.440;-2.534;2023-04-15T09:20:28;4.57;;;1.15;;
48987;SDS011;34799;51.440;-2.534;2023-04-15T09:22:58;6.85;;;0.73;;
48987;SDS011;34799;51.440;-2.534;2023-04-15T09:25:27;3.55;;;1.25;;
48987;SDS011;34799;51.440;-2.534;2023-04-15T09:27:59;4.55;;;1.10;;
48987;SDS011;34799;51.440;-2.534;2023-04-15T09:30:30;1.40;;;0.63;;
48987;SDS011;34799;51.440;-2.534;2023-04-15T09:32:59;2.75;;;0.70;;
48987;SDS011;34799;51.440;-2.534;2023-04-15T09:35:29;3.50;;;1.08;;
48987;SDS011;34799;51.440;-2.534;2023-04-15T09:38:02;1.98;;;0.63;;
48987;SDS011;34799;51.440;-2.534;2023-04-15T09:43:12;2.85;;;0.70;;
48987;SDS011;34799;51.440;-2.534;2023-04-15T09:45:49;3.03;;;0.73;;
48987;SDS011;34799;51.440;-2.534;2023-04-15T09:48:19;3.65;;;1.60;;
48987;SDS011;34799;51.440;-2.534;2023-04-15T09:51:01;9.18;;;2.15;;
48987;SDS011;34799;51.440;-2.534;2023-04-15T09:53:36;3.95;;;1.00;;
48987;SDS011;34799;51.440;-2.534;2023-04-15T09:56:08;2.42;;;0.70;;
48987;SDS011;34799;51.440;-2.534;2023-04-15T09:58:39;3.10;;;0.80;;
48987;SDS011;34799;51.440;-2.534;2023-04-15T10:01:12;1.85;;;0.65;;
48987;SDS011;34799;51.440;-2.534;2023-04-15T10:03:40;2.42;;;0.55;;
48987;SDS011;34799;51.440;-2.534;2023-04-15T10:06:18;4.55;;;0.80;;
48987;SDS011;34799;51.440;-2.534;2023-04-15T10:08:48;9.23;;;1.08;;
48987;SDS011;34799;51.440;-2.534;2023-04-15T10:11:17;2.90;;;0.77;;
48987;SDS011;34799;51.440;-2.534;2023-04-15T10:13:49;3.63;;;0.55;;
48987;SDS011;34799;51.440;-2.534;2023-04-15T10:16:20;2.70;;;0.80;;
48987;SDS011;34799;51.440;-2.534;2023-04-15T10:18:55;1.75;;;0.80;;
48987;SDS011;34799;51.440;-2.534;2023-04-15T10:21:28;6.93;;;0.73;;
48987;SDS011;34799;51.440;-2.534;2023-04-15T10:24:00;4.85;;;0.60;;
48987;SDS011;34799;51.440;-2.534;2023-04-15T10:26:34;5.13;;;0.65;;
48987;SDS011;34799;51.440;-2.534;2023-04-15T10:29:02;4.63;;;0.80;;
48987;SDS011;34799;51.440;-2.534;2023-04-15T10:31:35;3.90;;;1.00;;
48987;SDS011;34799;51.440;-2.534;2023-04-15T10:34:07;1.48;;;1.00;;
48987;SDS011;34799;51.440;-2.534;2023-04-15T10:36:39;3.75;;;0.90;;
48987;SDS011;34799;51.440;-2.534;2023-04-15T10:44:47;3.42;;;0.88;;
48987;SDS011;34799;51.440;-2.534;2023-04-15T10:47:21;4.10;;;0.90;;
48987;SDS011;34799;51.440;-2.534;2023-04-15T10:49:57;3.28;;;0.63;;
48987;SDS011;34799;51.440;-2.534;2023-04-15T10:52:31;8.75;;;0.90;;
48987;SDS011;34799;51.440;-2.534;2023-04-15T10:55:14;18.10;;;2.38;;
48987;SDS011;34799;51.440;-2.534;2023-04-15T10:57:55;2.90;;;1.00;;
48987;SDS011;34799;51.440;-2.534;2023-04-15T11:00:28;5.57;;;1.10;;
48987;SDS011;34799;51.440;-2.534;2023-04-15T11:03:05;0.95;;;0.73;;
48987;SDS011;34799;51.440;-2.534;2023-04-15T11:08:08;8.88;;;0.90;;
48987;SDS011;34799;51.440;-2.534;2023-04-15T11:13:14;2.38;;;0.73;;
48987;SDS011;34799;51.440;-2.534;2023-04-15T11:15:45;3.80;;;0.70;;
48987;SDS011;34799;51.440;-2.534;2023-04-15T11:18:19;3.45;;;0.40;;
48987;SDS011;34799;51.440;-2.534;2023-04-15T11:20:56;5.60;;;0.80;;
48987;SDS011;34799;51.440;-2.534;2023-04-15T11:23:33;3.97;;;0.57;;
48987;SDS011;34799;51.440;-2.534;2023-04-15T11:26:05;2.92;;;0.90;;
48987;SDS011;34799;51.440;-2.534;2023-04-15T11:28:40;3.97;;;1.47;;
48987;SDS011;34799;51.440;-2.534;2023-04-15T11:33:45;2.20;;;1.05;;
48987;SDS011;34799;51.440;-2.534;2023-04-15T11:36:24;2.83;;;1.10;;
48987;SDS011;34799;51.440;-2.534;2023-04-15T11:39:01;5.65;;;0.47;;
48987;SDS011;34799;51.440;-2.534;2023-04-15T11:41:42;2.03;;;0.68;;
48987;SDS011;34799;51.440;-2.534;2023-04-15T11:44:18;3.25;;;1.60;;
48987;SDS011;34799;51.440;-2.534;2023-04-15T11:46:47;2.72;;;1.52;;
48987;SDS011;34799;51.440;-2.534;2023-04-15T11:49:27;1.92;;;1.10;;
48987;SDS011;34799;51.440;-2.534;2023-04-15T11:51:56;4.55;;;1.30;;
48987;SDS011;34799;51.440;-2.534;2023-04-15T11:54:25;3.90;;;1.48;;
48987;SDS011;34799;51.440;-2.534;2023-04-15T11:56:52;3.03;;;1.23;;
48987;SDS011;34799;51.440;-2.534;2023-04-15T11:59:22;3.30;;;1.23;;
48987;SDS011;34799;51.440;-2.534;2023-04-15T12:01:50;4.63;;;1.42;;
48987;SDS011;34799;51.440;-2.534;2023-04-15T12:04:17;9.75;;;1.92;;
48987;SDS011;34799;51.440;-2.534;2023-04-15T12:06:49;1.83;;;0.95;;
48987;SDS011;34799;51.440;-2.534;2023-04-15T12:09:19;3.92;;;1.10;;
48987;SDS011;34799;51.440;-2.534;2023-04-15T12:11:49;2.55;;;1.30;;
48987;SDS011;34799;51.440;-2.534;2023-04-15T12:17:38;1.95;;;1.23;;
48987;SDS011;34799;51.440;-2.534;2023-04-15T12:20:06;6.80;;;1.10;;
48987;SDS011;34799;51.440;-2.534;2023-04-15T12:22:36;1.88;;;0.75;;
48987;SDS011;34799;51.440;-2.534;2023-04-15T12:25:07;4.32;;;0.90;;
48987;SDS011;34799;51.440;-2.534;2023-04-15T12:27:34;2.50;;;0.90;;
48987;SDS011;34799;51.440;-2.534;2023-04-15T12:30:05;2.85;;;1.23;;
48987;SDS011;34799;51.440;-2.534;2023-04-15T12:32:36;4.80;;;1.00;;
48987;SDS011;34799;51.440;-2.534;2023-04-15T12:35:09;5.18;;;0.90;;
48987;SDS011;34799;51.440;-2.534;2023-04-15T12:37:47;4.93;;;0.73;;
48987;SDS011;34799;51.440;-2.534;2023-04-15T12:40:15;4.70;;;0.68;;
48987;SDS011;34799;51.440;-2.534;2023-04-15T12:42:43;3.17;;;0.82;;
48987;SDS011;34799;51.440;-2.534;2023-04-15T12:45:14;2.28;;;0.70;;
48987;SDS011;34799;51.440;-2.534;2023-04-15T12:47:44;2.92;;;0.60;;
48987;SDS011;34799;51.440;-2.534;2023-04-15T12:50:11;1.98;;;0.63;;
48987;SDS011;34799;51.440;-2.534;2023-04-15T12:52:46;1.45;;;1.05;;
48987;SDS011;34799;51.440;-2.534;2023-04-15T12:55:13;1.45;;;0.57;;
48987;SDS011;34799;51.440;-2.534;2023-04-15T12:57:40;1.40;;;0.50;;
48987;SDS011;34799;51.440;-2.534;2023-04-15T13:00:07;1.95;;;0.50;;
48987;SDS011;34799;51.440;-2.534;2023-04-15T13:02:35;3.85;;;0.95;;
48987;SDS011;34799;51.440;-2.534;2023-04-15T13:05:03;2.92;;;0.70;;
48987;SDS011;34799;51.440;-2.534;2023-04-15T13:07:31;3.03;;;1.00;;
48987;SDS011;34799;51.440;-2.534;2023-04-15T13:09:58;4.90;;;0.60;;
48987;SDS011;34799;51.440;-2.534;2023-04-15T13:12:25;2.35;;;0.70;;
48987;SDS011;34799;51.440;-2.534;2023-04-15T13:14:52;1.58;;;0.90;;
48987;SDS011;34799;51.440;-2.534;2023-04-15T13:17:20;2.53;;;0.52;;
48987;SDS011;34799;51.440;-2.534;2023-04-15T13:19:54;1.10;;;0.63;;
48987;SDS011;34799;51.440;-2.534;2023-04-15T13:22:23;2.55;;;0.70;;
48987;SDS011;34799;51.440;-2.534;2023-04-15T13:24:53;2.22;;;0.70;;
48987;SDS011;34799;51.440;-2.534;2023-04-15T13:27:22;2.70;;;0.82;;
48987;SDS011;34799;51.440;-2.534;2023-04-15T13:29:53;2.97;;;0.73;;
48987;SDS011;34799;51.440;-2.534;2023-04-15T13:32:24;1.42;;;0.80;;
48987;SDS011;34799;51.440;-2.534;2023-04-15T13:34:54;5.22;;;0.90;;
48987;SDS011;34799;51.440;-2.534;2023-04-15T13:37:25;0.90;;;0.50;;
48987;SDS011;34799;51.440;-2.534;2023-04-15T13:39:59;3.05;;;0.40;;
48987;SDS011;34799;51.440;-2.534;2023-04-15T13:42:30;0.90;;;0.40;;
48987;SDS011;34799;51.440;-2.534;2023-04-15T13:45:03;2.42;;;0.40;;
48987;SDS011;34799;51.440;-2.534;2023-04-15T13:47:35;2.10;;;0.43;;
48987;SDS011;34799;51.440;-2.534;2023-04-15T13:50:02;1.52;;;0.35;;
48987;SDS011;34799;51.440;-2.534;2023-04-15T13:52:30;1.42;;;0.65;;
48987;SDS011;34799;51.440;-2.534;2023-04-15T13:55:00;2.38;;;0.50;;
48987;SDS011;34799;51.440;-2.534;2023-04-15T13:57:28;1.85;;;0.50;;
48987;SDS011;34799;51.440;-2.534;2023-04-15T13:59:57;1.55;;;0.60;;
48987;SDS011;34799;51.440;-2.534;2023-04-15T14:02:26;1.70;;;0.75;;
48987;SDS011;34799;51.440;-2.534;2023-04-15T14:04:53;2.10;;;0.30;;
48987;SDS011;34799;51.440;-2.534;2023-04-15T14:07:20;2.00;;;0.45;;
48987;SDS011;34799;51.440;-2.534;2023-04-15T14:09:48;1.25;;;0.75;;
48987;SDS011;34799;51.440;-2.534;2023-04-15T14:12:17;1.67;;;0.50;;
48987;SDS011;34799;51.440;-2.534;2023-04-15T14:14:48;1.75;;;0.60;;
48987;SDS011;34799;51.440;-2.534;2023-04-15T14:17:26;1.30;;;0.68;;
48987;SDS011;34799;51.440;-2.534;2023-04-15T14:19:55;3.58;;;0.73;;
48987;SDS011;34799;51.440;-2.534;2023-04-15T14:22:23;1.60;;;0.25;;
48987;SDS011;34799;51.440;-2.534;2023-04-15T14:24:50;1.60;;;0.50;;
48987;SDS011;34799;51.440;-2.534;2023-04-15T14:27:22;1.38;;;0.50;;
48987;SDS011;34799;51.440;-2.534;2023-04-15T14:29:52;2.55;;;0.45;;
48987;SDS011;34799;51.440;-2.534;2023-04-15T14:32:23;3.45;;;0.43;;
48987;SDS011;34799;51.440;-2.534;2023-04-15T14:34:59;1.30;;;0.40;;
48987;SDS011;34799;51.440;-2.534;2023-04-15T14:37:31;0.70;;;0.35;;
48987;SDS011;34799;51.440;-2.534;2023-04-15T14:40:02;1.98;;;0.40;;
48987;SDS011;34799;51.440;-2.534;2023-04-15T14:42:30;1.33;;;0.30;;
48987;SDS011;34799;51.440;-2.534;2023-04-15T14:44:58;1.85;;;0.60;;
48987;SDS011;34799;51.440;-2.534;2023-04-15T14:47:36;2.75;;;0.43;;
48987;SDS011;34799;51.440;-2.534;2023-04-15T14:50:05;4.78;;;0.57;;
48987;SDS011;34799;51.440;-2.534;2023-04-15T14:52:37;2.08;;;0.43;;
48987;SDS011;34799;51.440;-2.534;2023-04-15T14:55:08;1.65;;;0.35;;
48987;SDS011;34799;51.440;-2.534;2023-04-15T14:57:39;0.63;;;0.30;;
48987;SDS011;34799;51.440;-2.534;2023-04-15T15:00:11;1.88;;;0.40;;
48987;SDS011;34799;51.440;-2.534;2023-04-15T15:02:42;1.35;;;0.30;;
48987;SDS011;34799;51.440;-2.534;2023-04-15T15:05:12;2.22;;;0.50;;
48987;SDS011;34799;51.440;-2.534;2023-04-15T15:07:41;2.97;;;0.60;;
48987;SDS011;34799;51.440;-2.534;2023-04-15T15:10:14;1.17;;;0.43;;
48987;SDS011;34799;51.440;-2.534;2023-04-15T15:12:45;0.73;;;0.30;;
48987;SDS011;34799;51.440;-2.534;2023-04-15T15:15:17;0.95;;;0.22;;
48987;SDS011;34799;51.440;-2.534;2023-04-15T15:17:50;14.05;;;0.75;;